Tesla Gross Margin 2010-2022 | TSLA

Current and historical gross margin for Tesla (TSLA) over the last 10 years. The current gross profit margin for Tesla as of March 31, 2022 is %.
Tesla Gross Margin Historical Data
Date TTM Revenue TTM Gross Profit Gross Margin
2022-03-31 $59.81B $27.34B 45.72%
2021-12-31 $51.44B $24.10B 46.84%
2021-09-30 $45.14B $17.79B 39.42%
2021-06-30 $40.15B $16.20B 40.34%
2021-03-31 $34.23B $14.58B 42.59%
2020-12-31 $29.83B $13.60B 45.59%
2020-09-30 $26.94B $4.71B 17.50%
2020-06-30 $24.47B $3.84B 15.70%
2020-03-31 $24.78B $3.50B 14.11%
2019-12-31 $23.34B $2.83B 12.12%
2019-09-30 $23.27B $2.97B 12.76%
2019-06-30 $23.79B $3.30B 13.88%
2019-03-31 $21.44B $3.00B 13.99%
2018-12-31 $20.31B $2.89B 14.24%
2018-09-30 $16.64B $-0.25B -1.50%
2018-06-30 $12.81B $-1.32B -10.34%
2018-03-31 $11.59B $-1.28B -11.01%
2017-12-31 $10.88B $-1.07B -9.79%
2017-09-30 $10.21B $1.67B 16.40%
2017-06-30 $9.52B $1.86B 19.55%
2017-03-31 $8.00B $1.47B 18.37%
2016-12-31 $6.45B $1.05B 16.33%
2016-09-30 $5.93B $1.38B 23.33%
2016-06-30 $4.57B $0.98B 21.39%
2016-03-31 $4.25B $0.92B 21.51%
2015-12-31 $4.05B $0.92B 22.81%
2015-09-30 $3.79B $0.97B 25.49%
2015-06-30 $3.70B $0.99B 26.65%
2015-03-31 $3.52B $0.99B 28.06%
2014-12-31 $3.20B $0.88B 27.57%
2014-09-30 $2.86B $0.78B 27.20%
2014-06-30 $2.44B $0.63B 25.78%
2014-03-31 $2.07B $0.52B 24.86%
2013-12-31 $2.01B $0.46B 22.65%
2013-09-30 $1.70B $0.32B 18.96%
2013-06-30 $1.32B $0.21B 15.95%
2013-03-31 $0.95B $0.12B 12.28%
2012-12-31 $0.41B $0.03B 7.26%
2012-09-30 $0.15B $0.01B 9.59%
2012-06-30 $0.15B $0.04B 25.97%
2012-03-31 $0.19B $0.05B 29.19%
2011-12-31 $0.20B $0.06B 30.39%
2011-09-30 $0.20B $0.07B 32.34%
2011-06-30 $0.17B $0.06B 32.76%
2011-03-31 $0.14B $0.04B 30.56%
2010-12-31 $0.12B $0.03B 25.86%
2010-06-30 $0.10B $0.02B 18.95%
2010-03-31 $0.09B $0.01B 14.89%
Sector Industry Market Cap Revenue
Auto/Tires/Trucks Auto Manufacturers - Domestic $750.455B $53.823B
Tesla is the market leader in battery-powered electric car sales in the United States, with roughly 70% market share. The company's flagship Model 3 is the best-selling EV model in the United States. Tesla, which has managed to garner the reputation of a gold standard over the years, is now a far bigger entity that what it started off since its IPO in 2010, with its market cap crossing $1 trillion for the first time in October 2021.? The EV king's market capitalization is more than the combined value of legacy automakers including Toyota, Volkswagen, Daimler, General Motors and Ford.Over the years, Tesla has shifted from developing niche products for affluent buyers to making more affordable EVs for the masses. The firm's three-pronged business model approach of direct sales, servicing, and charging its EVs sets it apart from other carmakers. Tesla, which is touted as the clean energy revolutionary automaker, is much more than just a car manufacturer.
Stock Name Country Market Cap PE Ratio
General Motors (GM) United States $54.101B 5.35
Ford Motor (F) United States $52.458B 10.19
Polaris (PII) United States $6.353B 13.13
Harley-Davidson (HOG) United States $5.396B 8.74
IAA (IAA) United States $4.897B 14.73
Fisker (FSR) United States $2.882B 0.00
Lion Electric (LEV) Canada $1.036B 0.00
Volta (VLTA) United States $0.380B 0.00
Lightning EMotors (ZEV) United States $0.296B 0.00
Bird Global (BRDS) United States $0.270B 0.00